sensor_id;sensor_type;location;lat;lon;timestamp;temperature;humidity
80254;DHT22;69563;37.974;23.708;2023-05-18T00:02:07;23.70;43.30
80254;DHT22;69563;37.974;23.708;2023-05-18T00:04:34;23.70;43.30
80254;DHT22;69563;37.974;23.708;2023-05-18T00:07:01;23.70;43.30
80254;DHT22;69563;37.974;23.708;2023-05-18T00:09:33;23.70;43.30
80254;DHT22;69563;37.974;23.708;2023-05-18T00:12:00;23.60;43.30
80254;DHT22;69563;37.974;23.708;2023-05-18T00:14:27;23.60;43.30
80254;DHT22;69563;37.974;23.708;2023-05-18T00:16:53;23.60;43.40
80254;DHT22;69563;37.974;23.708;2023-05-18T00:19:22;23.60;43.40
80254;DHT22;69563;37.974;23.708;2023-05-18T00:21:50;23.60;43.40
80254;DHT22;69563;37.974;23.708;2023-05-18T00:24:17;23.60;43.50
80254;DHT22;69563;37.974;23.708;2023-05-18T00:26:44;23.60;43.40
80254;DHT22;69563;37.974;23.708;2023-05-18T00:29:10;23.60;43.40
80254;DHT22;69563;37.974;23.708;2023-05-18T00:31:38;23.60;43.50
80254;DHT22;69563;37.974;23.708;2023-05-18T00:34:05;23.60;43.40
80254;DHT22;69563;37.974;23.708;2023-05-18T00:36:31;23.50;43.40
80254;DHT22;69563;37.974;23.708;2023-05-18T00:38:57;23.50;43.40
80254;DHT22;69563;37.974;23.708;2023-05-18T00:41:24;23.50;43.40
80254;DHT22;69563;37.974;23.708;2023-05-18T00:43:51;23.50;43.40
80254;DHT22;69563;37.974;23.708;2023-05-18T00:46:17;23.60;43.50
80254;DHT22;69563;37.974;23.708;2023-05-18T00:48:43;23.50;43.40
80254;DHT22;69563;37.974;23.708;2023-05-18T00:51:10;23.50;43.50
80254;DHT22;69563;37.974;23.708;2023-05-18T00:53:36;23.50;43.60
80254;DHT22;69563;37.974;23.708;2023-05-18T00:56:03;23.40;43.70
80254;DHT22;69563;37.974;23.708;2023-05-18T00:58:29;23.40;43.80
80254;DHT22;69563;37.974;23.708;2023-05-18T01:00:56;23.40;44.00
80254;DHT22;69563;37.974;23.708;2023-05-18T01:03:22;23.40;44.10
80254;DHT22;69563;37.974;23.708;2023-05-18T01:05:49;23.40;44.10
80254;DHT22;69563;37.974;23.708;2023-05-18T01:08:21;23.40;44.20
80254;DHT22;69563;37.974;23.708;2023-05-18T01:10:53;23.40;44.20
80254;DHT22;69563;37.974;23.708;2023-05-18T01:13:34;23.40;44.30
80254;DHT22;69563;37.974;23.708;2023-05-18T01:16:06;23.40;44.30
80254;DHT22;69563;37.974;23.708;2023-05-18T01:18:39;23.40;44.40
80254;DHT22;69563;37.974;23.708;2023-05-18T01:21:18;23.40;44.40
80254;DHT22;69563;37.974;23.708;2023-05-18T01:26:54;23.40;44.40
80254;DHT22;69563;37.974;23.708;2023-05-18T01:29:24;23.40;44.50
80254;DHT22;69563;37.974;23.708;2023-05-18T01:31:50;23.40;44.50
80254;DHT22;69563;37.974;23.708;2023-05-18T01:34:16;23.40;44.60
80254;DHT22;69563;37.974;23.708;2023-05-18T01:36:41;23.30;44.70
80254;DHT22;69563;37.974;23.708;2023-05-18T01:39:08;23.30;44.80
80254;DHT22;69563;37.974;23.708;2023-05-18T01:41:36;23.30;44.90
80254;DHT22;69563;37.974;23.708;2023-05-18T01:52:10;23.30;45.10
80254;DHT22;69563;37.974;23.708;2023-05-18T01:54:42;23.20;45.20
80254;DHT22;69563;37.974;23.708;2023-05-18T01:57:09;23.20;45.20
80254;DHT22;69563;37.974;23.708;2023-05-18T01:59:36;23.20;45.40
80254;DHT22;69563;37.974;23.708;2023-05-18T02:02:03;23.20;45.40
80254;DHT22;69563;37.974;23.708;2023-05-18T02:04:29;23.20;45.50
80254;DHT22;69563;37.974;23.708;2023-05-18T02:06:55;23.20;45.60
80254;DHT22;69563;37.974;23.708;2023-05-18T02:09:21;23.20;45.70
80254;DHT22;69563;37.974;23.708;2023-05-18T02:11:48;23.20;45.80
80254;DHT22;69563;37.974;23.708;2023-05-18T02:14:14;23.20;45.90
80254;DHT22;69563;37.974;23.708;2023-05-18T02:16:39;23.20;45.90
80254;DHT22;69563;37.974;23.708;2023-05-18T02:19:05;23.20;45.90
80254;DHT22;69563;37.974;23.708;2023-05-18T02:21:31;23.20;45.90
80254;DHT22;69563;37.974;23.708;2023-05-18T02:23:59;23.20;46.90
80254;DHT22;69563;37.974;23.708;2023-05-18T02:26:25;23.10;45.90
80254;DHT22;69563;37.974;23.708;2023-05-18T02:28:52;23.10;45.90
80254;DHT22;69563;37.974;23.708;2023-05-18T02:31:17;23.10;45.90
80254;DHT22;69563;37.974;23.708;2023-05-18T02:33:43;23.10;46.00
80254;DHT22;69563;37.974;23.708;2023-05-18T02:36:12;23.10;46.00
80254;DHT22;69563;37.974;23.708;2023-05-18T02:38:40;23.10;46.10
80254;DHT22;69563;37.974;23.708;2023-05-18T02:41:07;23.10;46.10
80254;DHT22;69563;37.974;23.708;2023-05-18T02:43:33;23.10;46.20
80254;DHT22;69563;37.974;23.708;2023-05-18T02:45:59;23.10;46.30
80254;DHT22;69563;37.974;23.708;2023-05-18T02:48:25;23.10;46.20
80254;DHT22;69563;37.974;23.708;2023-05-18T02:50:51;23.10;46.20
80254;DHT22;69563;37.974;23.708;2023-05-18T02:53:17;23.10;46.20
80254;DHT22;69563;37.974;23.708;2023-05-18T02:55:42;23.10;46.20
80254;DHT22;69563;37.974;23.708;2023-05-18T02:58:08;23.10;46.20
80254;DHT22;69563;37.974;23.708;2023-05-18T03:00:34;23.10;46.30
80254;DHT22;69563;37.974;23.708;2023-05-18T03:03:00;23.10;47.20
80254;DHT22;69563;37.974;23.708;2023-05-18T03:05:26;23.10;46.30
80254;DHT22;69563;37.974;23.708;2023-05-18T03:07:52;23.10;46.30
80254;DHT22;69563;37.974;23.708;2023-05-18T03:10:19;23.20;46.40
80254;DHT22;69563;37.974;23.708;2023-05-18T03:12:45;23.10;46.20
80254;DHT22;69563;37.974;23.708;2023-05-18T03:15:12;23.10;46.30
80254;DHT22;69563;37.974;23.708;2023-05-18T03:17:40;23.20;46.30
80254;DHT22;69563;37.974;23.708;2023-05-18T03:20:08;23.10;46.30
80254;DHT22;69563;37.974;23.708;2023-05-18T03:22:36;23.10;46.30
80254;DHT22;69563;37.974;23.708;2023-05-18T03:25:03;23.10;46.30
80254;DHT22;69563;37.974;23.708;2023-05-18T03:27:29;23.10;46.30
80254;DHT22;69563;37.974;23.708;2023-05-18T03:29:55;23.20;46.40
80254;DHT22;69563;37.974;23.708;2023-05-18T03:32:23;23.20;46.40
80254;DHT22;69563;37.974;23.708;2023-05-18T03:34:50;23.20;46.40
80254;DHT22;69563;37.974;23.708;2023-05-18T03:37:17;23.10;46.40
80254;DHT22;69563;37.974;23.708;2023-05-18T03:39:43;23.10;46.50
80254;DHT22;69563;37.974;23.708;2023-05-18T03:42:09;23.10;46.50
80254;DHT22;69563;37.974;23.708;2023-05-18T03:44:34;23.00;46.60
80254;DHT22;69563;37.974;23.708;2023-05-18T03:47:00;23.10;46.70
80254;DHT22;69563;37.974;23.708;2023-05-18T03:49:26;23.10;46.70
80254;DHT22;69563;37.974;23.708;2023-05-18T03:51:51;23.10;46.60
80254;DHT22;69563;37.974;23.708;2023-05-18T03:54:19;23.10;46.40
80254;DHT22;69563;37.974;23.708;2023-05-18T03:56:45;23.20;46.30
80254;DHT22;69563;37.974;23.708;2023-05-18T03:59:11;23.20;46.30
80254;DHT22;69563;37.974;23.708;2023-05-18T04:01:37;23.20;46.10
80254;DHT22;69563;37.974;23.708;2023-05-18T04:04:09;23.30;46.00
80254;DHT22;69563;37.974;23.708;2023-05-18T04:06:45;23.40;45.70
80254;DHT22;69563;37.974;23.708;2023-05-18T04:09:12;23.40;45.40
80254;DHT22;69563;37.974;23.708;2023-05-18T04:11:39;23.50;45.40
80254;DHT22;69563;37.974;23.708;2023-05-18T04:14:06;23.60;45.30
80254;DHT22;69563;37.974;23.708;2023-05-18T04:16:33;23.70;45.20
80254;DHT22;69563;37.974;23.708;2023-05-18T04:18:59;23.80;45.30
80254;DHT22;69563;37.974;23.708;2023-05-18T04:21:25;23.90;45.40
80254;DHT22;69563;37.974;23.708;2023-05-18T04:23:50;24.00;45.50
80254;DHT22;69563;37.974;23.708;2023-05-18T04:26:16;24.10;45.40
80254;DHT22;69563;37.974;23.708;2023-05-18T04:28:45;24.10;45.50
80254;DHT22;69563;37.974;23.708;2023-05-18T04:31:12;24.20;45.10
80254;DHT22;69563;37.974;23.708;2023-05-18T04:33:42;24.30;44.90
80254;DHT22;69563;37.974;23.708;2023-05-18T04:36:11;24.30;44.50
80254;DHT22;69563;37.974;23.708;2023-05-18T04:38:36;24.40;44.50
80254;DHT22;69563;37.974;23.708;2023-05-18T04:41:02;24.50;44.20
80254;DHT22;69563;37.974;23.708;2023-05-18T04:43:32;24.60;43.80
80254;DHT22;69563;37.974;23.708;2023-05-18T04:45:58;24.60;43.60
80254;DHT22;69563;37.974;23.708;2023-05-18T04:48:24;24.70;43.60
80254;DHT22;69563;37.974;23.708;2023-05-18T04:50:50;24.80;43.40
80254;DHT22;69563;37.974;23.708;2023-05-18T04:53:19;24.90;43.30
80254;DHT22;69563;37.974;23.708;2023-05-18T04:55:47;25.00;43.10
80254;DHT22;69563;37.974;23.708;2023-05-18T04:58:14;25.10;43.00
80254;DHT22;69563;37.974;23.708;2023-05-18T05:00:41;25.20;42.90
80254;DHT22;69563;37.974;23.708;2023-05-18T05:03:07;25.20;42.60
80254;DHT22;69563;37.974;23.708;2023-05-18T05:05:33;25.30;42.50
80254;DHT22;69563;37.974;23.708;2023-05-18T05:07:59;25.40;42.40
80254;DHT22;69563;37.974;23.708;2023-05-18T05:10:25;25.50;42.30
80254;DHT22;69563;37.974;23.708;2023-05-18T05:12:52;25.50;42.20
80254;DHT22;69563;37.974;23.708;2023-05-18T05:15:18;25.60;41.90
80254;DHT22;69563;37.974;23.708;2023-05-18T05:17:48;25.70;41.80
80254;DHT22;69563;37.974;23.708;2023-05-18T05:20:14;25.70;41.60
80254;DHT22;69563;37.974;23.708;2023-05-18T05:22:40;25.80;41.50
80254;DHT22;69563;37.974;23.708;2023-05-18T05:25:06;25.90;41.30
80254;DHT22;69563;37.974;23.708;2023-05-18T05:27:32;25.90;41.00
80254;DHT22;69563;37.974;23.708;2023-05-18T05:29:58;26.00;40.90
80254;DHT22;69563;37.974;23.708;2023-05-18T05:32:23;26.00;40.60
80254;DHT22;69563;37.974;23.708;2023-05-18T05:34:49;26.10;40.30
80254;DHT22;69563;37.974;23.708;2023-05-18T05:37:17;26.20;40.20
80254;DHT22;69563;37.974;23.708;2023-05-18T05:39:43;26.20;40.00
80254;DHT22;69563;37.974;23.708;2023-05-18T05:42:08;26.30;39.90
80254;DHT22;69563;37.974;23.708;2023-05-18T05:44:34;26.30;39.70
80254;DHT22;69563;37.974;23.708;2023-05-18T05:47:00;26.40;39.50
80254;DHT22;69563;37.974;23.708;2023-05-18T05:49:26;26.40;39.40
80254;DHT22;69563;37.974;23.708;2023-05-18T05:51:52;26.50;39.30
80254;DHT22;69563;37.974;23.708;2023-05-18T05:54:18;26.50;39.10
80254;DHT22;69563;37.974;23.708;2023-05-18T05:56:43;26.50;38.90
80254;DHT22;69563;37.974;23.708;2023-05-18T05:59:09;26.50;38.70
80254;DHT22;69563;37.974;23.708;2023-05-18T06:01:35;26.60;38.70
80254;DHT22;69563;37.974;23.708;2023-05-18T06:04:01;26.60;38.60
80254;DHT22;69563;37.974;23.708;2023-05-18T06:06:29;26.70;38.50
80254;DHT22;69563;37.974;23.708;2023-05-18T06:08:56;26.70;38.20
80254;DHT22;69563;37.974;23.708;2023-05-18T06:11:21;26.70;38.00
80254;DHT22;69563;37.974;23.708;2023-05-18T06:13:48;26.70;37.80
80254;DHT22;69563;37.974;23.708;2023-05-18T06:16:13;26.80;37.70
80254;DHT22;69563;37.974;23.708;2023-05-18T06:18:39;26.80;37.60
80254;DHT22;69563;37.974;23.708;2023-05-18T06:21:05;26.80;37.40
80254;DHT22;69563;37.974;23.708;2023-05-18T06:23:30;26.80;37.30
80254;DHT22;69563;37.974;23.708;2023-05-18T06:25:56;26.80;37.10
80254;DHT22;69563;37.974;23.708;2023-05-18T06:28:22;26.90;37.20
80254;DHT22;69563;37.974;23.708;2023-05-18T06:30:47;26.90;37.10
80254;DHT22;69563;37.974;23.708;2023-05-18T06:33:13;26.90;36.90
80254;DHT22;69563;37.974;23.708;2023-05-18T06:35:39;26.90;36.80
80254;DHT22;69563;37.974;23.708;2023-05-18T06:38:05;27.00;36.90
80254;DHT22;69563;37.974;23.708;2023-05-18T06:40:31;27.00;36.80
80254;DHT22;69563;37.974;23.708;2023-05-18T06:42:57;27.00;36.70
80254;DHT22;69563;37.974;23.708;2023-05-18T06:45:23;27.00;37.60
80254;DHT22;69563;37.974;23.708;2023-05-18T06:47:48;27.00;36.50
80254;DHT22;69563;37.974;23.708;2023-05-18T06:50:14;27.00;36.40
80254;DHT22;69563;37.974;23.708;2023-05-18T06:52:40;27.00;36.20
80254;DHT22;69563;37.974;23.708;2023-05-18T06:55:06;27.10;36.20
80254;DHT22;69563;37.974;23.708;2023-05-18T06:57:33;27.10;36.10
80254;DHT22;69563;37.974;23.708;2023-05-18T06:59:59;27.10;36.10
80254;DHT22;69563;37.974;23.708;2023-05-18T07:02:25;27.10;36.00
80254;DHT22;69563;37.974;23.708;2023-05-18T07:04:50;27.10;36.00
80254;DHT22;69563;37.974;23.708;2023-05-18T07:07:17;27.20;36.00
80254;DHT22;69563;37.974;23.708;2023-05-18T07:09:42;27.20;36.00
80254;DHT22;69563;37.974;23.708;2023-05-18T07:12:11;27.20;35.90
80254;DHT22;69563;37.974;23.708;2023-05-18T07:14:36;27.20;35.80
80254;DHT22;69563;37.974;23.708;2023-05-18T07:17:03;27.20;35.70
80254;DHT22;69563;37.974;23.708;2023-05-18T07:19:29;27.20;35.70
80254;DHT22;69563;37.974;23.708;2023-05-18T07:21:54;27.20;35.60
80254;DHT22;69563;37.974;23.708;2023-05-18T07:24:21;27.20;35.60
80254;DHT22;69563;37.974;23.708;2023-05-18T07:26:47;27.20;35.50
80254;DHT22;69563;37.974;23.708;2023-05-18T07:29:13;27.20;35.40
80254;DHT22;69563;37.974;23.708;2023-05-18T07:31:38;27.20;35.40
80254;DHT22;69563;37.974;23.708;2023-05-18T07:34:06;27.20;35.40
80254;DHT22;69563;37.974;23.708;2023-05-18T07:36:32;27.30;35.40
80254;DHT22;69563;37.974;23.708;2023-05-18T07:38:58;27.20;35.20
80254;DHT22;69563;37.974;23.708;2023-05-18T07:41:25;27.20;35.20
80254;DHT22;69563;37.974;23.708;2023-05-18T07:43:52;27.30;35.20
80254;DHT22;69563;37.974;23.708;2023-05-18T07:46:18;27.30;35.20
80254;DHT22;69563;37.974;23.708;2023-05-18T07:48:44;27.30;35.20
80254;DHT22;69563;37.974;23.708;2023-05-18T07:51:11;27.30;35.20
80254;DHT22;69563;37.974;23.708;2023-05-18T07:53:37;27.20;35.00
80254;DHT22;69563;37.974;23.708;2023-05-18T07:56:04;27.30;35.10
80254;DHT22;69563;37.974;23.708;2023-05-18T07:58:30;27.30;35.00
80254;DHT22;69563;37.974;23.708;2023-05-18T08:00:55;27.30;35.00
80254;DHT22;69563;37.974;23.708;2023-05-18T08:03:21;27.30;36.20
80254;DHT22;69563;37.974;23.708;2023-05-18T08:05:47;27.30;35.00
80254;DHT22;69563;37.974;23.708;2023-05-18T08:08:12;27.30;35.00
80254;DHT22;69563;37.974;23.708;2023-05-18T08:10:40;27.40;35.10
80254;DHT22;69563;37.974;23.708;2023-05-18T08:13:06;27.30;35.20
80254;DHT22;69563;37.974;23.708;2023-05-18T08:15:33;27.30;35.20
80254;DHT22;69563;37.974;23.708;2023-05-18T08:17:58;27.30;35.30
80254;DHT22;69563;37.974;23.708;2023-05-18T08:20:24;27.30;35.40
80254;DHT22;69563;37.974;23.708;2023-05-18T08:22:50;27.30;35.40
80254;DHT22;69563;37.974;23.708;2023-05-18T08:25:16;27.30;35.40
80254;DHT22;69563;37.974;23.708;2023-05-18T08:27:42;27.30;35.40
80254;DHT22;69563;37.974;23.708;2023-05-18T08:30:10;27.40;35.50
80254;DHT22;69563;37.974;23.708;2023-05-18T08:32:36;27.30;35.40
80254;DHT22;69563;37.974;23.708;2023-05-18T08:35:05;27.30;35.50
80254;DHT22;69563;37.974;23.708;2023-05-18T08:37:32;27.30;35.40
80254;DHT22;69563;37.974;23.708;2023-05-18T08:39:59;27.30;35.40
80254;DHT22;69563;37.974;23.708;2023-05-18T08:47:55;27.40;35.50
80254;DHT22;69563;37.974;23.708;2023-05-18T08:50:25;27.40;35.50
80254;DHT22;69563;37.974;23.708;2023-05-18T08:52:54;27.30;35.50
80254;DHT22;69563;37.974;23.708;2023-05-18T08:55:22;27.40;35.50
80254;DHT22;69563;37.974;23.708;2023-05-18T08:57:53;27.40;35.50
80254;DHT22;69563;37.974;23.708;2023-05-18T09:00:22;27.40;35.50
80254;DHT22;69563;37.974;23.708;2023-05-18T09:02:51;27.30;35.50
80254;DHT22;69563;37.974;23.708;2023-05-18T09:05:17;27.30;35.50
80254;DHT22;69563;37.974;23.708;2023-05-18T09:07:45;27.30;35.50
80254;DHT22;69563;37.974;23.708;2023-05-18T09:10:11;27.30;35.50
80254;DHT22;69563;37.974;23.708;2023-05-18T09:12:38;27.40;35.60
80254;DHT22;69563;37.974;23.708;2023-05-18T09:15:07;27.30;35.40
80254;DHT22;69563;37.974;23.708;2023-05-18T09:17:34;27.40;35.50
80254;DHT22;69563;37.974;23.708;2023-05-18T09:20:00;27.40;35.50
80254;DHT22;69563;37.974;23.708;2023-05-18T09:22:25;27.40;35.50
80254;DHT22;69563;37.974;23.708;2023-05-18T09:24:52;27.40;35.50
80254;DHT22;69563;37.974;23.708;2023-05-18T09:27:18;27.40;35.40
80254;DHT22;69563;37.974;23.708;2023-05-18T09:29:57;27.40;35.40
80254;DHT22;69563;37.974;23.708;2023-05-18T09:32:24;27.40;35.30
80254;DHT22;69563;37.974;23.708;2023-05-18T09:34:50;27.40;35.20
80254;DHT22;69563;37.974;23.708;2023-05-18T09:37:18;27.40;35.30
80254;DHT22;69563;37.974;23.708;2023-05-18T09:39:44;27.40;35.20
80254;DHT22;69563;37.974;23.708;2023-05-18T09:42:10;27.40;35.20
80254;DHT22;69563;37.974;23.708;2023-05-18T09:44:40;27.40;35.10
80254;DHT22;69563;37.974;23.708;2023-05-18T09:47:08;27.40;35.20
80254;DHT22;69563;37.974;23.708;2023-05-18T09:49:35;27.40;35.20
80254;DHT22;69563;37.974;23.708;2023-05-18T09:52:05;27.50;35.20
80254;DHT22;69563;37.974;23.708;2023-05-18T09:54:31;27.50;35.10
80254;DHT22;69563;37.974;23.708;2023-05-18T09:57:00;27.50;35.10
80254;DHT22;69563;37.974;23.708;2023-05-18T09:59:28;27.50;35.10
80254;DHT22;69563;37.974;23.708;2023-05-18T10:02:00;27.50;35.00
80254;DHT22;69563;37.974;23.708;2023-05-18T10:04:42;27.50;35.00
80254;DHT22;69563;37.974;23.708;2023-05-18T10:07:17;27.60;35.00
80254;DHT22;69563;37.974;23.708;2023-05-18T10:09:44;27.60;35.00
80254;DHT22;69563;37.974;23.708;2023-05-18T10:12:17;27.50;34.90
80254;DHT22;69563;37.974;23.708;2023-05-18T10:14:45;27.50;35.00
80254;DHT22;69563;37.974;23.708;2023-05-18T10:17:14;27.50;34.90
80254;DHT22;69563;37.974;23.708;2023-05-18T10:19:41;27.50;35.00
80254;DHT22;69563;37.974;23.708;2023-05-18T10:22:09;27.50;35.10
80254;DHT22;69563;37.974;23.708;2023-05-18T10:24:38;27.50;35.20
80254;DHT22;69563;37.974;23.708;2023-05-18T10:27:07;27.50;35.30
80254;DHT22;69563;37.974;23.708;2023-05-18T10:29:35;27.50;35.50
80254;DHT22;69563;37.974;23.708;2023-05-18T10:32:05;27.50;36.00
80254;DHT22;69563;37.974;23.708;2023-05-18T10:34:32;27.40;36.20
80254;DHT22;69563;37.974;23.708;2023-05-18T10:37:00;27.40;36.30
80254;DHT22;69563;37.974;23.708;2023-05-18T10:39:30;27.40;36.50
80254;DHT22;69563;37.974;23.708;2023-05-18T10:41:58;27.40;36.60
80254;DHT22;69563;37.974;23.708;2023-05-18T10:44:25;27.50;36.80
80254;DHT22;69563;37.974;23.708;2023-05-18T10:46:52;27.40;36.70
80254;DHT22;69563;37.974;23.708;2023-05-18T10:49:20;27.50;36.80
80254;DHT22;69563;37.974;23.708;2023-05-18T10:51:52;27.40;36.70
80254;DHT22;69563;37.974;23.708;2023-05-18T10:54:20;27.40;36.60
80254;DHT22;69563;37.974;23.708;2023-05-18T10:56:51;27.40;36.60
80254;DHT22;69563;37.974;23.708;2023-05-18T10:59:18;27.40;36.50
80254;DHT22;69563;37.974;23.708;2023-05-18T11:01:46;27.40;36.50
80254;DHT22;69563;37.974;23.708;2023-05-18T11:04:13;27.40;36.40
80254;DHT22;69563;37.974;23.708;2023-05-18T11:06:39;27.40;36.50
80254;DHT22;69563;37.974;23.708;2023-05-18T11:09:04;27.40;36.60
80254;DHT22;69563;37.974;23.708;2023-05-18T11:11:49;27.30;36.50
80254;DHT22;69563;37.974;23.708;2023-05-18T11:14:24;27.40;36.70
80254;DHT22;69563;37.974;23.708;2023-05-18T11:16:51;27.30;36.70
80254;DHT22;69563;37.974;23.708;2023-05-18T11:19:17;27.30;36.70
80254;DHT22;69563;37.974;23.708;2023-05-18T11:27:07;27.20;36.50
80254;DHT22;69563;37.974;23.708;2023-05-18T11:29:35;27.20;36.50
80254;DHT22;69563;37.974;23.708;2023-05-18T11:32:02;27.30;36.50
80254;DHT22;69563;37.974;23.708;2023-05-18T11:34:41;27.20;36.50
80254;DHT22;69563;37.974;23.708;2023-05-18T11:37:10;27.20;36.40
80254;DHT22;69563;37.974;23.708;2023-05-18T11:39:36;27.20;36.40
80254;DHT22;69563;37.974;23.708;2023-05-18T11:42:07;27.20;36.50
80254;DHT22;69563;37.974;23.708;2023-05-18T11:44:34;27.20;36.50
80254;DHT22;69563;37.974;23.708;2023-05-18T11:49:45;27.20;36.50
80254;DHT22;69563;37.974;23.708;2023-05-18T11:54:41;27.20;36.50
80254;DHT22;69563;37.974;23.708;2023-05-18T11:57:07;27.10;36.50
80254;DHT22;69563;37.974;23.708;2023-05-18T11:59:42;27.10;36.50
80254;DHT22;69563;37.974;23.708;2023-05-18T12:02:11;27.10;36.60
80254;DHT22;69563;37.974;23.708;2023-05-18T12:04:57;27.10;36.70
80254;DHT22;69563;37.974;23.708;2023-05-18T12:07:26;27.10;36.70
80254;DHT22;69563;37.974;23.708;2023-05-18T12:10:01;27.10;36.70
80254;DHT22;69563;37.974;23.708;2023-05-18T12:12:27;27.10;36.70
80254;DHT22;69563;37.974;23.708;2023-05-18T12:15:04;27.10;36.60
80254;DHT22;69563;37.974;23.708;2023-05-18T12:17:49;27.10;36.60
80254;DHT22;69563;37.974;23.708;2023-05-18T12:20:17;27.10;36.50
80254;DHT22;69563;37.974;23.708;2023-05-18T12:22:45;27.10;36.50
80254;DHT22;69563;37.974;23.708;2023-05-18T12:25:14;27.10;36.40
80254;DHT22;69563;37.974;23.708;2023-05-18T12:27:41;27.10;36.30
80254;DHT22;69563;37.974;23.708;2023-05-18T12:32:59;27.10;36.10
80254;DHT22;69563;37.974;23.708;2023-05-18T12:35:27;27.10;36.00
80254;DHT22;69563;37.974;23.708;2023-05-18T12:37:54;27.00;35.90
80254;DHT22;69563;37.974;23.708;2023-05-18T12:40:21;27.00;35.80
80254;DHT22;69563;37.974;23.708;2023-05-18T12:43:04;27.00;35.90
80254;DHT22;69563;37.974;23.708;2023-05-18T12:45:32;27.00;35.70
80254;DHT22;69563;37.974;23.708;2023-05-18T12:48:10;27.00;35.70
80254;DHT22;69563;37.974;23.708;2023-05-18T12:50:48;27.00;35.70
80254;DHT22;69563;37.974;23.708;2023-05-18T12:53:15;27.00;35.60
80254;DHT22;69563;37.974;23.708;2023-05-18T12:55:41;27.00;35.60
80254;DHT22;69563;37.974;23.708;2023-05-18T12:58:14;27.00;35.50
80254;DHT22;69563;37.974;23.708;2023-05-18T13:00:44;27.00;35.40
80254;DHT22;69563;37.974;23.708;2023-05-18T13:03:15;27.10;35.40
80254;DHT22;69563;37.974;23.708;2023-05-18T13:05:42;27.10;35.40
80254;DHT22;69563;37.974;23.708;2023-05-18T13:08:19;27.10;35.40
80254;DHT22;69563;37.974;23.708;2023-05-18T13:10:48;27.00;35.50
80254;DHT22;69563;37.974;23.708;2023-05-18T13:13:14;27.10;35.60
80254;DHT22;69563;37.974;23.708;2023-05-18T13:15:42;27.10;35.60
80254;DHT22;69563;37.974;23.708;2023-05-18T13:18:09;27.10;35.90
80254;DHT22;69563;37.974;23.708;2023-05-18T13:20:39;27.10;36.10
80254;DHT22;69563;37.974;23.708;2023-05-18T13:23:13;27.10;36.50
80254;DHT22;69563;37.974;23.708;2023-05-18T13:25:40;27.10;36.90
80254;DHT22;69563;37.974;23.708;2023-05-18T13:28:06;27.10;37.20
80254;DHT22;69563;37.974;23.708;2023-05-18T13:30:35;27.10;37.60
80254;DHT22;69563;37.974;23.708;2023-05-18T13:33:01;27.10;37.90
80254;DHT22;69563;37.974;23.708;2023-05-18T13:35:27;27.10;38.20
80254;DHT22;69563;37.974;23.708;2023-05-18T13:37:52;27.00;38.40
80254;DHT22;69563;37.974;23.708;2023-05-18T13:40:20;27.10;39.00
80254;DHT22;69563;37.974;23.708;2023-05-18T13:42:46;27.10;39.10
80254;DHT22;69563;37.974;23.708;2023-05-18T13:45:13;27.10;39.20
80254;DHT22;69563;37.974;23.708;2023-05-18T13:47:39;27.00;39.40
80254;DHT22;69563;37.974;23.708;2023-05-18T13:50:06;27.00;39.60
80254;DHT22;69563;37.974;23.708;2023-05-18T13:52:33;27.00;39.70
80254;DHT22;69563;37.974;23.708;2023-05-18T13:54:59;27.00;39.80
80254;DHT22;69563;37.974;23.708;2023-05-18T13:57:25;27.00;39.80
80254;DHT22;69563;37.974;23.708;2023-05-18T13:59:51;27.00;39.90
80254;DHT22;69563;37.974;23.708;2023-05-18T14:02:18;27.00;39.90
80254;DHT22;69563;37.974;23.708;2023-05-18T14:04:44;27.00;39.90
80254;DHT22;69563;37.974;23.708;2023-05-18T14:07:10;27.00;39.90
80254;DHT22;69563;37.974;23.708;2023-05-18T14:09:36;26.90;39.70
80254;DHT22;69563;37.974;23.708;2023-05-18T14:12:02;26.90;39.80
80254;DHT22;69563;37.974;23.708;2023-05-18T14:14:30;26.90;39.70
80254;DHT22;69563;37.974;23.708;2023-05-18T14:16:56;26.90;39.60
80254;DHT22;69563;37.974;23.708;2023-05-18T14:19:21;26.90;39.50
80254;DHT22;69563;37.974;23.708;2023-05-18T14:21:47;26.90;39.40
80254;DHT22;69563;37.974;23.708;2023-05-18T14:24:13;26.90;39.40
80254;DHT22;69563;37.974;23.708;2023-05-18T14:26:40;26.80;40.30
80254;DHT22;69563;37.974;23.708;2023-05-18T14:29:05;26.80;39.30
80254;DHT22;69563;37.974;23.708;2023-05-18T14:31:31;26.80;39.20
80254;DHT22;69563;37.974;23.708;2023-05-18T14:33:57;26.80;39.20
80254;DHT22;69563;37.974;23.708;2023-05-18T14:36:23;26.80;39.10
80254;DHT22;69563;37.974;23.708;2023-05-18T14:38:49;26.80;38.90
80254;DHT22;69563;37.974;23.708;2023-05-18T14:41:15;26.80;38.90
80254;DHT22;69563;37.974;23.708;2023-05-18T14:43:41;26.80;38.80
80254;DHT22;69563;37.974;23.708;2023-05-18T14:46:06;26.80;38.80
80254;DHT22;69563;37.974;23.708;2023-05-18T14:48:32;26.80;38.80
80254;DHT22;69563;37.974;23.708;2023-05-18T14:50:58;26.80;38.90
80254;DHT22;69563;37.974;23.708;2023-05-18T14:53:23;26.80;38.80
80254;DHT22;69563;37.974;23.708;2023-05-18T14:55:49;26.80;38.80
80254;DHT22;69563;37.974;23.708;2023-05-18T14:58:15;26.80;38.80
80254;DHT22;69563;37.974;23.708;2023-05-18T15:00:41;26.80;38.80
80254;DHT22;69563;37.974;23.708;2023-05-18T15:03:07;26.80;38.80
80254;DHT22;69563;37.974;23.708;2023-05-18T15:05:33;26.80;38.80
80254;DHT22;69563;37.974;23.708;2023-05-18T15:07:59;26.70;38.80
80254;DHT22;69563;37.974;23.708;2023-05-18T15:10:25;26.70;38.80
80254;DHT22;69563;37.974;23.708;2023-05-18T15:12:50;26.80;38.80
80254;DHT22;69563;37.974;23.708;2023-05-18T15:15:16;26.80;38.80
80254;DHT22;69563;37.974;23.708;2023-05-18T15:17:42;26.80;38.90
80254;DHT22;69563;37.974;23.708;2023-05-18T15:20:08;26.80;38.80
80254;DHT22;69563;37.974;23.708;2023-05-18T15:22:34;26.80;38.80
80254;DHT22;69563;37.974;23.708;2023-05-18T15:25:07;26.80;39.00
80254;DHT22;69563;37.974;23.708;2023-05-18T15:27:36;26.80;39.20
80254;DHT22;69563;37.974;23.708;2023-05-18T15:30:03;26.70;39.20
80254;DHT22;69563;37.974;23.708;2023-05-18T15:32:36;26.70;39.40
80254;DHT22;69563;37.974;23.708;2023-05-18T15:35:02;26.70;39.50
80254;DHT22;69563;37.974;23.708;2023-05-18T15:37:28;26.70;39.60
80254;DHT22;69563;37.974;23.708;2023-05-18T15:39:53;26.70;39.60
80254;DHT22;69563;37.974;23.708;2023-05-18T15:42:19;26.70;39.70
80254;DHT22;69563;37.974;23.708;2023-05-18T15:44:45;26.70;39.70
80254;DHT22;69563;37.974;23.708;2023-05-18T15:47:11;26.70;39.80